createdAt,value
2022-10-15T00:01:55.229Z,0.82
2022-10-15T00:03:56.120Z,0.50
2022-10-15T00:05:57.033Z,0.47
2022-10-15T00:07:57.811Z,1.00
2022-10-15T00:09:58.575Z,0.57
2022-10-15T00:11:59.384Z,0.42
2022-10-15T00:14:00.239Z,0.45
2022-10-15T00:16:01.411Z,0.10
2022-10-15T00:18:02.199Z,1.00
2022-10-15T00:20:04.016Z,1.32
2022-10-15T00:22:04.795Z,0.40
2022-10-15T00:24:06.004Z,0.45
2022-10-15T00:26:08.384Z,0.80
2022-10-15T00:28:09.466Z,0.65
2022-10-15T00:30:10.692Z,0.53
2022-10-15T00:32:11.456Z,0.80
2022-10-15T00:34:13.365Z,0.30
2022-10-15T00:36:17.040Z,1.00
2022-10-15T00:38:17.827Z,0.70
2022-10-15T00:40:19.399Z,0.72
2022-10-15T00:42:20.369Z,1.57
2022-10-15T00:44:23.303Z,0.40
2022-10-15T00:46:32.472Z,0.37
2022-10-15T00:48:33.352Z,0.75
2022-10-15T00:50:34.827Z,1.15
2022-10-15T00:52:53.826Z,0.37
2022-10-15T00:55:01.176Z,0.20
2022-10-15T00:57:02.163Z,1.75
2022-10-15T00:59:04.330Z,1.47
2022-10-15T01:01:05.169Z,0.70
2022-10-15T01:03:05.994Z,3.02
2022-10-15T01:05:07.690Z,0.40
2022-10-15T01:07:08.656Z,0.50
2022-10-15T01:09:12.147Z,2.52
2022-10-15T01:11:20.608Z,0.72
2022-10-15T01:13:23.286Z,2.80
2022-10-15T01:15:28.981Z,0.33
2022-10-15T01:17:31.654Z,2.10
2022-10-15T01:19:37.333Z,0.80
2022-10-15T01:21:40.010Z,0.93
2022-10-15T01:23:48.482Z,2.17
2022-10-15T01:25:57.361Z,0.53
2022-10-15T01:28:09.318Z,2.02
2022-10-15T01:30:28.518Z,0.20
2022-10-15T01:32:31.181Z,0.20
2022-10-15T01:34:52.178Z,1.42
2022-10-15T01:36:57.821Z,1.55
2022-10-15T01:39:03.682Z,0.35
2022-10-15T01:41:21.753Z,2.00
2022-10-15T01:43:26.361Z,0.20
2022-10-15T01:45:46.044Z,0.20
2022-10-15T01:47:50.609Z,1.85
2022-10-15T01:49:53.210Z,0.40
2022-10-15T01:51:55.201Z,1.42
2022-10-15T01:53:58.070Z,0.65
2022-10-15T01:56:03.832Z,1.60
2022-10-15T01:58:05.386Z,0.37
2022-10-15T02:00:06.761Z,1.22
2022-10-15T02:02:16.786Z,0.20
2022-10-15T02:04:20.363Z,0.82
2022-10-15T02:06:23.150Z,0.70
2022-10-15T02:08:25.950Z,0.37
2022-10-15T02:10:28.714Z,2.12
2022-10-15T02:12:31.683Z,0.20
2022-10-15T02:14:35.366Z,1.40
2022-10-15T02:16:47.126Z,1.12
2022-10-15T02:18:49.907Z,0.28
2022-10-15T02:20:52.595Z,1.22
2022-10-15T02:22:58.383Z,2.27
2022-10-15T02:25:06.878Z,2.58
2022-10-15T02:27:08.370Z,2.58
2022-10-15T02:29:12.022Z,0.47
2022-10-15T02:31:14.642Z,3.05
2022-10-15T02:33:17.499Z,2.42
2022-10-15T02:35:18.606Z,0.62
2022-10-15T02:37:21.282Z,2.35
2022-10-15T02:39:23.556Z,0.98
2022-10-15T02:41:26.225Z,1.15
2022-10-15T02:43:27.020Z,1.40
2022-10-15T02:45:27.793Z,0.40
2022-10-15T02:47:28.690Z,1.30
2022-10-15T02:49:29.578Z,0.20
2022-10-15T02:51:31.234Z,3.55
2022-10-15T02:53:33.007Z,1.05
2022-10-15T02:55:33.893Z,1.85
2022-10-15T02:57:34.906Z,1.90
2022-10-15T02:59:36.566Z,0.65
2022-10-15T03:01:37.434Z,3.27
2022-10-15T03:03:38.626Z,0.95
2022-10-15T03:05:39.676Z,4.85
2022-10-15T03:07:40.566Z,3.30
2022-10-15T03:09:41.862Z,10.40
2022-10-15T03:11:42.798Z,4.95
2022-10-15T03:13:43.667Z,3.95
2022-10-15T03:15:44.472Z,6.95
2022-10-15T03:17:45.545Z,6.28
2022-10-15T03:19:48.328Z,1.92
2022-10-15T03:21:49.511Z,2.72
2022-10-15T03:23:50.502Z,2.37
2022-10-15T03:25:53.587Z,3.42
2022-10-15T03:27:56.384Z,3.62
2022-10-15T03:29:59.060Z,4.05
2022-10-15T03:32:01.447Z,0.85
2022-10-15T03:34:02.432Z,6.70
2022-10-15T03:36:04.188Z,3.83
2022-10-15T03:38:05.660Z,1.40
2022-10-15T03:40:11.858Z,2.77
2022-10-15T03:42:09.937Z,0.75
2022-10-15T03:44:12.696Z,0.90
2022-10-15T03:46:15.812Z,2.83
2022-10-15T03:48:18.184Z,0.85
2022-10-15T03:50:18.960Z,0.33
2022-10-15T03:52:19.855Z,1.20
2022-10-15T03:54:21.142Z,0.60
2022-10-15T03:56:23.813Z,1.60
2022-10-15T03:58:25.283Z,4.87
2022-10-15T04:00:27.979Z,1.42
2022-10-15T04:02:30.345Z,2.15
2022-10-15T04:04:31.430Z,2.05
2022-10-15T04:06:33.733Z,2.25
2022-10-15T04:08:36.511Z,0.70
2022-10-15T04:10:39.180Z,0.53
2022-10-15T04:12:40.752Z,2.95
2022-10-15T04:14:42.024Z,0.30
2022-10-15T04:16:42.897Z,2.05
2022-10-15T04:18:45.593Z,0.33
2022-10-15T04:20:47.676Z,1.30
2022-10-15T04:22:50.347Z,1.77
2022-10-15T04:24:51.320Z,1.65
2022-10-15T04:26:54.115Z,0.23
2022-10-15T04:28:54.941Z,3.42
2022-10-15T04:30:57.555Z,5.33
2022-10-15T04:32:58.652Z,2.10
2022-10-15T04:34:59.519Z,2.65
2022-10-15T04:37:02.195Z,2.08
2022-10-15T04:39:04.432Z,0.55
2022-10-15T04:41:13.035Z,0.20
2022-10-15T04:43:15.740Z,1.22
2022-10-15T04:45:16.577Z,3.35
2022-10-15T04:47:17.629Z,2.55
2022-10-15T04:49:20.303Z,2.15
2022-10-15T04:51:21.717Z,0.60
2022-10-15T04:53:36.167Z,3.95
2022-10-15T04:55:37.850Z,1.67
2022-10-15T04:57:38.728Z,2.80
2022-10-15T04:59:41.215Z,2.10
2022-10-15T05:01:55.719Z,0.35
2022-10-15T05:03:56.772Z,5.58
2022-10-15T05:06:01.933Z,6.28
2022-10-15T05:08:03.923Z,1.52
2022-10-15T05:10:07.095Z,1.87
2022-10-15T05:12:08.664Z,2.55
2022-10-15T05:14:09.577Z,5.45
2022-10-15T05:16:14.696Z,3.67
2022-10-15T05:18:15.652Z,1.37
2022-10-15T05:20:18.324Z,0.47
2022-10-15T05:22:20.373Z,2.25
2022-10-15T05:24:23.287Z,0.98
2022-10-15T05:26:31.930Z,0.93
2022-10-15T05:28:33.632Z,0.55
2022-10-15T05:30:34.866Z,0.20
2022-10-15T05:32:35.973Z,0.75
2022-10-15T05:34:37.133Z,1.57
2022-10-15T05:36:42.807Z,2.15
2022-10-15T05:38:43.975Z,1.30
2022-10-15T05:40:49.481Z,3.17
2022-10-15T05:44:55.010Z,2.42
2022-10-15T05:46:55.805Z,2.37
2022-10-15T05:48:57.769Z,2.02
2022-10-15T05:51:03.781Z,1.60
2022-10-15T05:53:04.642Z,5.58
2022-10-15T05:55:10.267Z,2.47
2022-10-15T05:57:11.158Z,1.37
2022-10-15T05:59:12.432Z,1.65
2022-10-15T06:01:13.814Z,2.10
2022-10-15T06:03:15.878Z,0.50
2022-10-15T06:05:16.662Z,1.22
2022-10-15T06:07:17.549Z,0.75
2022-10-15T06:09:18.311Z,1.80
2022-10-15T06:11:19.481Z,1.70
2022-10-15T06:13:20.330Z,3.30
2022-10-15T06:15:21.485Z,1.75
2022-10-15T06:17:22.626Z,2.52
2022-10-15T06:19:24.926Z,1.27
2022-10-15T06:21:25.714Z,1.57
2022-10-15T06:23:26.470Z,0.40
2022-10-15T06:25:27.647Z,0.85
2022-10-15T06:27:28.437Z,0.35
2022-10-15T06:29:29.228Z,1.40
2022-10-15T06:31:30.482Z,0.25
2022-10-15T06:33:31.256Z,2.37
2022-10-15T06:35:33.947Z,2.75
2022-10-15T06:37:34.718Z,5.00
2022-10-15T06:39:35.503Z,1.42
2022-10-15T06:41:36.298Z,0.40
2022-10-15T06:43:37.073Z,2.47
2022-10-15T06:45:38.801Z,0.40
2022-10-15T06:47:41.500Z,0.40
2022-10-15T06:49:42.266Z,1.40
2022-10-15T06:51:43.038Z,4.03
2022-10-15T06:53:43.923Z,6.40
2022-10-15T06:55:44.688Z,1.42
2022-10-15T06:57:45.447Z,5.37
2022-10-15T06:59:48.142Z,2.83
2022-10-15T07:01:48.942Z,0.20
2022-10-15T07:03:50.219Z,0.30
2022-10-15T07:05:50.986Z,4.28
2022-10-15T07:07:52.559Z,0.78
2022-10-15T07:09:54.649Z,1.95
2022-10-15T07:11:55.836Z,0.40
2022-10-15T07:13:57.420Z,2.58
2022-10-15T07:16:00.153Z,3.65
2022-10-15T07:18:01.135Z,2.33
2022-10-15T07:20:02.135Z,0.62
2022-10-15T07:22:02.899Z,8.08
2022-10-15T07:24:03.962Z,5.30
2022-10-15T07:26:05.439Z,1.25
2022-10-15T07:28:06.307Z,9.98
2022-10-15T07:30:07.804Z,1.45
2022-10-15T07:32:08.596Z,2.50
2022-10-15T07:34:09.364Z,2.10
2022-10-15T07:36:12.040Z,4.28
2022-10-15T07:38:12.937Z,2.47
2022-10-15T07:40:13.725Z,3.35
2022-10-15T07:42:15.115Z,2.40
2022-10-15T07:44:16.008Z,2.30
2022-10-15T07:46:16.855Z,3.80
2022-10-15T07:48:17.630Z,3.75
2022-10-15T07:50:19.008Z,5.00
2022-10-15T07:52:20.324Z,8.50
2022-10-15T07:54:21.287Z,4.30
2022-10-15T07:56:22.159Z,0.88
2022-10-15T07:58:23.454Z,1.65
2022-10-15T08:00:24.629Z,3.77
2022-10-15T08:02:26.040Z,1.92
2022-10-15T08:04:27.400Z,7.85
2022-10-15T08:06:28.176Z,8.93
2022-10-15T08:08:29.149Z,6.58
2022-10-15T08:10:29.961Z,1.82
2022-10-15T08:12:30.736Z,3.52
2022-10-15T08:14:32.312Z,7.17
2022-10-15T08:16:33.196Z,9.73
2022-10-15T08:18:34.459Z,7.65
2022-10-15T08:20:35.940Z,6.47
2022-10-15T08:22:36.828Z,8.53
2022-10-15T08:24:37.604Z,4.72
2022-10-15T08:26:38.584Z,8.25
2022-10-15T08:28:39.445Z,2.40
2022-10-15T08:30:40.350Z,7.45
2022-10-15T08:32:46.943Z,8.08
2022-10-15T08:34:47.744Z,7.33
2022-10-15T08:36:48.624Z,8.98
2022-10-15T08:38:49.397Z,8.20
2022-10-15T08:40:54.164Z,12.20
2022-10-15T08:42:55.126Z,9.23
2022-10-15T08:44:57.701Z,9.18
2022-10-15T08:47:18.604Z,10.85
2022-10-15T08:49:21.280Z,4.83
2022-10-15T08:51:23.555Z,5.20
2022-10-15T08:53:25.564Z,7.12
2022-10-15T08:55:30.256Z,7.75
2022-10-15T08:57:44.752Z,5.62
2022-10-15T08:59:47.466Z,7.25
2022-10-15T09:02:05.095Z,2.77
2022-10-15T09:04:22.738Z,2.92
2022-10-15T09:06:25.500Z,6.40
2022-10-15T09:08:46.811Z,4.20
2022-10-15T09:10:52.411Z,7.03
2022-10-15T09:14:57.723Z,6.00
2022-10-15T09:17:00.521Z,6.10
2022-10-15T09:19:03.878Z,6.65
2022-10-15T09:21:04.779Z,8.15
2022-10-15T09:23:07.459Z,3.83
2022-10-15T09:25:16.806Z,7.53
2022-10-15T09:27:25.575Z,7.28
2022-10-15T09:29:28.548Z,6.70
2022-10-15T09:31:31.229Z,0.20
2022-10-15T09:33:33.907Z,3.47
2022-10-15T09:35:36.605Z,5.25
2022-10-15T09:38:02.145Z,8.50
2022-10-15T09:40:08.559Z,5.58
2022-10-15T09:42:14.846Z,4.30
2022-10-15T09:44:19.712Z,4.00
2022-10-15T09:46:21.328Z,6.60
2022-10-15T09:48:23.055Z,4.92
2022-10-15T09:50:25.365Z,5.70
2022-10-15T09:52:28.059Z,3.90
2022-10-15T09:54:32.536Z,7.55
2022-10-15T09:56:37.809Z,6.15
2022-10-15T09:58:40.567Z,4.17
2022-10-15T10:00:55.199Z,2.45
2022-10-15T10:02:57.980Z,6.58
2022-10-15T10:05:01.625Z,3.92
2022-10-15T10:07:06.687Z,6.78
2022-10-15T10:09:09.379Z,5.67
2022-10-15T10:11:10.771Z,3.83
2022-10-15T10:13:19.591Z,7.45
2022-10-15T10:15:31.488Z,3.65
2022-10-15T10:17:32.268Z,7.20
2022-10-15T10:19:33.206Z,3.42
2022-10-15T10:21:35.697Z,1.75
2022-10-15T10:23:38.597Z,1.95
2022-10-15T10:25:42.231Z,4.60
2022-10-15T10:27:44.516Z,4.22
2022-10-15T10:29:47.337Z,2.60
2022-10-15T10:31:50.387Z,3.22
2022-10-15T10:33:53.072Z,0.20
2022-10-15T10:35:54.352Z,2.47
2022-10-15T10:37:55.153Z,2.85
2022-10-15T10:39:57.328Z,3.17
2022-10-15T10:41:59.812Z,5.03
2022-10-15T10:44:00.608Z,6.45
2022-10-15T10:46:03.882Z,4.80
2022-10-15T10:48:19.567Z,5.20
2022-10-15T10:50:28.365Z,2.27
2022-10-15T10:52:30.547Z,0.30
2022-10-15T10:54:31.866Z,3.02
2022-10-15T10:56:37.561Z,0.40
2022-10-15T10:58:38.441Z,3.27
2022-10-15T11:00:41.001Z,3.77
2022-10-15T11:02:43.311Z,1.87
2022-10-15T11:04:44.186Z,4.25
2022-10-15T11:06:50.505Z,4.28
2022-10-15T11:09:00.835Z,1.47
2022-10-15T11:11:03.519Z,4.67
2022-10-15T11:15:14.779Z,2.70
2022-10-15T11:17:32.610Z,4.53
2022-10-15T11:19:59.689Z,3.75
2022-10-15T11:21:56.905Z,4.58
2022-10-15T11:24:11.762Z,2.65
2022-10-15T11:26:17.633Z,2.33
2022-10-15T11:28:26.115Z,4.97
2022-10-15T11:30:47.035Z,2.60
2022-10-15T11:33:09.121Z,4.75
2022-10-15T11:35:00.268Z,1.30
2022-10-15T11:37:02.935Z,3.62
2022-10-15T11:39:08.408Z,2.50
2022-10-15T11:43:15.459Z,1.55
2022-10-15T11:45:36.137Z,2.75
2022-10-15T11:47:42.986Z,0.72
2022-10-15T11:49:48.430Z,1.72
2022-10-15T11:51:51.146Z,1.80
2022-10-15T11:53:59.570Z,0.95
2022-10-15T11:56:05.279Z,2.10
2022-10-15T11:58:08.051Z,1.55
2022-10-15T12:00:16.653Z,2.58
2022-10-15T12:02:22.974Z,2.47
2022-10-15T12:06:28.556Z,2.15
2022-10-15T12:08:31.488Z,1.32
2022-10-15T12:10:50.859Z,0.93
2022-10-15T12:13:08.491Z,1.60
2022-10-15T12:15:26.014Z,1.92
2022-10-15T12:17:31.770Z,1.60
2022-10-15T12:19:37.576Z,2.15
2022-10-15T12:21:40.270Z,2.10
2022-10-15T12:23:41.477Z,0.95
2022-10-15T12:25:43.778Z,2.10
2022-10-15T12:27:44.570Z,1.47
2022-10-15T12:29:53.038Z,2.42
2022-10-15T12:31:55.706Z,1.17
2022-10-15T12:33:58.378Z,0.33
2022-10-15T12:36:00.677Z,0.90
2022-10-15T12:38:12.310Z,1.35
2022-10-15T12:40:23.779Z,0.75
2022-10-15T12:42:29.226Z,0.30
2022-10-15T12:44:31.111Z,0.82
2022-10-15T12:46:36.163Z,1.57
2022-10-15T12:48:38.731Z,1.45
2022-10-15T12:50:39.508Z,0.60
2022-10-15T12:52:57.410Z,0.68
2022-10-15T12:55:02.622Z,0.40
2022-10-15T12:57:05.718Z,0.50
2022-10-15T12:59:25.066Z,1.30
2022-10-15T13:01:29.596Z,0.85
2022-10-15T13:03:37.255Z,0.75
2022-10-15T13:05:38.651Z,0.53
2022-10-15T13:07:42.061Z,0.50
2022-10-15T13:09:43.139Z,0.95
2022-10-15T13:11:52.599Z,2.58
2022-10-15T13:13:55.306Z,0.95
2022-10-15T13:15:57.783Z,0.50
2022-10-15T13:17:59.972Z,0.20
2022-10-15T13:20:03.833Z,1.32
2022-10-15T13:22:05.611Z,1.25
2022-10-15T13:24:09.107Z,1.35
2022-10-15T13:26:15.318Z,0.70
2022-10-15T13:30:16.942Z,0.30
2022-10-15T13:32:17.913Z,0.40
2022-10-15T13:34:20.591Z,1.00
2022-10-15T13:36:24.064Z,0.53
2022-10-15T13:38:25.851Z,1.12
2022-10-15T13:40:27.923Z,0.57
2022-10-15T13:42:28.791Z,0.78
2022-10-15T13:44:29.720Z,0.72
2022-10-15T13:46:31.819Z,0.40
2022-10-15T13:48:34.509Z,0.40
2022-10-15T13:50:35.693Z,0.57
2022-10-15T13:52:41.172Z,1.20
2022-10-15T13:54:43.856Z,0.60
2022-10-15T13:56:50.446Z,0.40
2022-10-15T13:58:52.145Z,0.50
2022-10-15T14:00:54.873Z,0.30
2022-10-15T14:02:57.608Z,0.37
2022-10-15T14:05:00.316Z,0.33
2022-10-15T14:07:03.538Z,0.40
2022-10-15T14:09:06.553Z,0.78
2022-10-15T14:11:09.289Z,0.60
2022-10-15T14:13:10.663Z,0.70
2022-10-15T14:15:30.155Z,0.50
2022-10-15T14:17:31.026Z,0.30
2022-10-15T14:19:32.899Z,0.40
2022-10-15T14:21:34.572Z,0.20
2022-10-15T14:23:35.367Z,0.70
2022-10-15T14:25:36.227Z,1.65
2022-10-15T14:27:37.149Z,0.30
2022-10-15T14:29:39.436Z,0.30
2022-10-15T14:31:40.504Z,0.62
2022-10-15T14:33:42.094Z,0.53
2022-10-15T14:35:42.854Z,1.75
2022-10-15T14:37:43.718Z,0.75
2022-10-15T14:39:46.407Z,0.40
2022-10-15T14:42:03.781Z,1.17
2022-10-15T14:44:12.564Z,1.37
2022-10-15T14:46:15.259Z,0.57
2022-10-15T14:48:17.917Z,0.40
2022-10-15T14:50:19.283Z,0.53
2022-10-15T14:52:22.016Z,0.30
2022-10-15T14:54:24.830Z,0.90
2022-10-15T14:56:27.482Z,0.55
2022-10-15T14:58:29.029Z,0.75
2022-10-15T15:00:33.855Z,0.40
2022-10-15T15:02:34.826Z,0.37
2022-10-15T15:04:37.776Z,0.68
2022-10-15T15:06:38.540Z,0.72
2022-10-15T15:08:39.409Z,0.25
2022-10-15T15:10:40.716Z,0.20
2022-10-15T15:12:52.542Z,1.57
2022-10-15T15:14:53.406Z,0.20
2022-10-15T15:16:54.174Z,0.40
2022-10-15T15:18:56.550Z,0.47
2022-10-15T15:20:59.242Z,0.57
2022-10-15T15:23:00.114Z,0.55
2022-10-15T15:25:01.978Z,0.88
2022-10-15T15:27:02.794Z,0.50
2022-10-15T15:29:08.940Z,0.68
2022-10-15T15:31:10.066Z,0.20
2022-10-15T15:33:12.166Z,0.30
2022-10-15T15:35:20.610Z,0.53
2022-10-15T15:37:23.878Z,0.20
2022-10-15T15:39:24.691Z,0.78
2022-10-15T15:41:25.542Z,0.57
2022-10-15T15:43:26.443Z,0.20
2022-10-15T15:45:27.643Z,0.25
2022-10-15T15:47:28.445Z,0.30
2022-10-15T15:49:29.279Z,0.30
2022-10-15T15:51:31.474Z,1.12
2022-10-15T15:53:32.244Z,0.20
2022-10-15T15:55:33.012Z,1.07
2022-10-15T15:57:33.870Z,0.30
2022-10-15T15:59:34.692Z,0.30
2022-10-15T16:01:35.488Z,0.20
2022-10-15T16:03:36.347Z,0.53
2022-10-15T16:05:37.715Z,0.42
2022-10-15T16:07:38.479Z,0.30
2022-10-15T16:09:39.267Z,0.72
2022-10-15T16:11:40.030Z,1.90
2022-10-15T16:13:42.347Z,0.97
2022-10-15T16:15:43.133Z,0.23
2022-10-15T16:17:43.908Z,0.75
2022-10-15T16:19:44.766Z,1.15
2022-10-15T16:21:45.528Z,1.00
2022-10-15T16:23:46.412Z,2.00
2022-10-15T16:25:47.279Z,0.75
2022-10-15T16:27:48.148Z,0.30
2022-10-15T16:29:49.012Z,0.20
2022-10-15T16:31:49.808Z,1.20
2022-10-15T16:33:50.663Z,0.90
2022-10-15T16:35:52.840Z,2.08
2022-10-15T16:37:55.488Z,0.37
2022-10-15T16:39:57.136Z,1.05
2022-10-15T16:41:58.027Z,1.80
2022-10-15T16:43:58.815Z,0.62
2022-10-15T16:46:00.968Z,2.67
2022-10-15T16:48:01.782Z,1.65
2022-10-15T16:50:03.373Z,0.82
2022-10-15T16:52:04.295Z,3.17
2022-10-15T16:54:05.060Z,1.15
2022-10-15T16:56:13.635Z,1.82
2022-10-15T16:58:14.419Z,1.87
2022-10-15T17:00:15.517Z,1.20
2022-10-15T17:02:16.421Z,0.50
2022-10-15T17:04:17.288Z,0.20
2022-10-15T17:06:20.056Z,1.32
2022-10-15T17:08:22.361Z,0.20
2022-10-15T17:10:25.040Z,0.62
2022-10-15T17:12:26.114Z,1.65
2022-10-15T17:14:27.324Z,3.85
2022-10-15T17:16:30.000Z,0.33
2022-10-15T17:18:30.795Z,0.78
2022-10-15T17:20:33.496Z,2.45
2022-10-15T17:22:34.585Z,0.45
2022-10-15T17:24:35.372Z,3.17
2022-10-15T17:26:37.749Z,2.10
2022-10-15T17:28:39.719Z,1.40
2022-10-15T17:30:40.556Z,1.32
2022-10-15T17:32:41.383Z,0.20
2022-10-15T17:34:42.198Z,3.90
2022-10-15T17:36:46.276Z,3.65
2022-10-15T17:38:47.378Z,1.12
2022-10-15T17:40:48.256Z,2.12
2022-10-15T17:42:49.043Z,0.20
2022-10-15T17:44:50.013Z,1.15
2022-10-15T17:46:51.726Z,2.80
2022-10-15T17:48:54.731Z,0.62
2022-10-15T17:50:56.840Z,2.20
2022-10-15T17:52:59.643Z,0.90
2022-10-15T17:55:00.428Z,0.30
2022-10-15T17:57:01.204Z,0.45
2022-10-15T17:59:03.801Z,0.60
2022-10-15T18:01:04.837Z,0.95
2022-10-15T18:03:07.520Z,1.42
2022-10-15T18:05:08.423Z,1.80
2022-10-15T18:07:11.184Z,0.50
2022-10-15T18:09:12.056Z,4.37
2022-10-15T18:11:14.560Z,0.90
2022-10-15T18:13:15.331Z,1.45
2022-10-15T18:15:17.135Z,1.87
2022-10-15T18:17:18.124Z,1.30
2022-10-15T18:19:18.888Z,0.95
2022-10-15T18:21:20.559Z,1.85
2022-10-15T18:23:21.729Z,1.50
2022-10-15T18:25:22.747Z,1.50
2022-10-15T18:27:23.858Z,0.25
2022-10-15T18:29:25.241Z,2.58
2022-10-15T18:31:26.480Z,1.07
2022-10-15T18:33:27.282Z,3.75
2022-10-15T18:35:28.038Z,0.55
2022-10-15T18:37:29.559Z,3.85
2022-10-15T18:39:30.442Z,1.37
2022-10-15T18:41:32.876Z,0.28
2022-10-15T18:43:33.691Z,2.35
2022-10-15T18:45:37.239Z,2.33
2022-10-15T18:47:38.007Z,0.50
2022-10-15T18:49:38.882Z,1.75
2022-10-15T18:51:39.852Z,1.70
2022-10-15T18:53:40.926Z,0.85
2022-10-15T18:55:41.699Z,1.92
2022-10-15T18:57:42.563Z,2.80
2022-10-15T18:59:43.375Z,0.35
2022-10-15T19:01:44.414Z,1.42
2022-10-15T19:03:48.902Z,2.05
2022-10-15T19:05:50.390Z,2.47
2022-10-15T19:07:53.059Z,2.17
2022-10-15T19:09:54.448Z,1.12
2022-10-15T19:11:57.349Z,1.32
2022-10-15T19:13:58.610Z,2.00
2022-10-15T19:16:00.288Z,1.42
2022-10-15T19:20:02.028Z,1.12
2022-10-15T19:22:02.806Z,1.92
2022-10-15T19:24:03.839Z,2.92
2022-10-15T19:26:07.938Z,2.08
2022-10-15T19:28:08.811Z,1.80
2022-10-15T19:30:09.894Z,1.32
2022-10-15T19:32:10.722Z,1.27
2022-10-15T19:34:12.483Z,0.50
2022-10-15T19:38:15.964Z,2.40
2022-10-15T19:40:16.872Z,1.57
2022-10-15T19:42:18.130Z,0.40
2022-10-15T19:44:21.719Z,1.02
2022-10-15T19:46:22.486Z,1.50
2022-10-15T19:48:24.051Z,1.65
2022-10-15T19:50:24.826Z,1.60
2022-10-15T19:52:27.499Z,2.17
2022-10-15T19:54:28.460Z,2.12
2022-10-15T19:56:29.470Z,1.47
2022-10-15T19:58:30.650Z,2.33
2022-10-15T20:00:31.826Z,1.65
2022-10-15T20:02:32.695Z,1.27
2022-10-15T20:04:33.656Z,1.82
2022-10-15T20:06:35.024Z,0.98
2022-10-15T20:08:36.018Z,1.75
2022-10-15T20:10:41.030Z,1.85
2022-10-15T20:12:41.915Z,1.90
2022-10-15T20:14:42.780Z,1.10
2022-10-15T20:16:43.686Z,1.95
2022-10-15T20:18:44.447Z,0.20
2022-10-15T20:20:45.340Z,0.45
2022-10-15T20:22:46.218Z,0.33
2022-10-15T20:24:46.985Z,1.35
2022-10-15T20:26:49.077Z,1.12
2022-10-15T20:28:50.434Z,0.23
2022-10-15T20:32:54.115Z,0.72
2022-10-15T20:34:54.901Z,0.30
2022-10-15T20:36:55.878Z,0.50
2022-10-15T20:38:57.942Z,1.17
2022-10-15T20:40:58.729Z,1.37
2022-10-15T20:42:59.597Z,1.35
2022-10-15T20:45:00.373Z,0.40
2022-10-15T20:47:06.110Z,0.65
2022-10-15T20:49:09.228Z,1.55
2022-10-15T20:51:12.664Z,0.78
2022-10-15T20:53:13.605Z,0.78
2022-10-15T20:55:14.412Z,1.40
2022-10-15T20:57:15.379Z,2.22
2022-10-15T20:59:16.155Z,0.95
2022-10-15T21:01:18.333Z,0.85
2022-10-15T21:03:19.197Z,1.50
2022-10-15T21:05:19.996Z,0.88
2022-10-15T21:09:22.780Z,1.10
2022-10-15T21:11:25.583Z,1.32
2022-10-15T21:13:26.364Z,1.62
2022-10-15T21:15:27.148Z,0.30
2022-10-15T21:17:28.138Z,0.75
2022-10-15T21:19:29.283Z,1.15
2022-10-15T21:21:31.760Z,1.60
2022-10-15T21:23:33.043Z,1.55
2022-10-15T21:25:33.890Z,1.00
2022-10-15T21:27:34.712Z,1.05
2022-10-15T21:29:35.685Z,0.60
2022-10-15T21:31:36.575Z,0.95
2022-10-15T21:33:37.491Z,0.50
2022-10-15T21:35:38.267Z,0.93
2022-10-15T21:37:39.029Z,1.07
2022-10-15T21:39:39.802Z,0.40
2022-10-15T21:41:40.580Z,2.77
2022-10-15T21:43:41.402Z,0.93
2022-10-15T21:45:42.431Z,1.10
2022-10-15T21:47:43.231Z,1.05
2022-10-15T21:49:44.996Z,1.50
2022-10-15T21:51:45.775Z,1.67
2022-10-15T21:53:46.668Z,1.85
2022-10-15T21:55:54.320Z,0.30
2022-10-15T21:57:55.095Z,0.88
2022-10-15T21:59:56.020Z,1.87
2022-10-15T22:01:56.950Z,2.08
2022-10-15T22:04:02.178Z,1.42
2022-10-15T22:06:03.764Z,1.40
2022-10-15T22:08:04.972Z,2.30
2022-10-15T22:10:06.000Z,0.55
2022-10-15T22:12:06.775Z,1.45
2022-10-15T22:14:09.463Z,1.70
2022-10-15T22:16:10.551Z,0.20
2022-10-15T22:18:11.553Z,0.78
2022-10-15T22:20:12.357Z,0.40
2022-10-15T22:22:13.215Z,0.85
2022-10-15T22:24:16.296Z,0.50
2022-10-15T22:26:18.291Z,0.57
2022-10-15T22:28:19.110Z,0.50
2022-10-15T22:30:20.046Z,1.07
2022-10-15T22:32:20.822Z,1.42
2022-10-15T22:34:22.447Z,2.10
2022-10-15T22:36:24.834Z,0.53
2022-10-15T22:38:25.607Z,1.35
2022-10-15T22:40:26.379Z,0.40
2022-10-15T22:42:27.442Z,0.20
2022-10-15T22:44:28.437Z,0.60
2022-10-15T22:46:31.109Z,0.57
2022-10-15T22:48:35.532Z,1.37
2022-10-15T22:50:36.317Z,1.00
2022-10-15T22:52:37.078Z,1.12
2022-10-15T22:54:37.870Z,1.00
2022-10-15T22:56:38.634Z,1.57
2022-10-15T22:58:39.700Z,0.20
2022-10-15T23:00:40.498Z,0.30
2022-10-15T23:02:41.267Z,1.42
2022-10-15T23:04:42.098Z,0.78
2022-10-15T23:06:43.294Z,1.10
2022-10-15T23:08:46.467Z,0.85
2022-10-15T23:10:47.648Z,0.30
2022-10-15T23:12:48.426Z,1.85
2022-10-15T23:14:49.186Z,0.30
2022-10-15T23:16:49.967Z,0.78
2022-10-15T23:18:52.159Z,1.65
2022-10-15T23:20:54.038Z,2.08
2022-10-15T23:22:55.043Z,1.00
2022-10-15T23:24:55.810Z,2.17
2022-10-15T23:26:56.575Z,2.20
2022-10-15T23:28:58.321Z,0.33
2022-10-15T23:30:59.229Z,1.10
2022-10-15T23:33:00.991Z,1.47
2022-10-15T23:35:01.946Z,1.50
2022-10-15T23:37:02.726Z,1.20
2022-10-15T23:39:04.190Z,2.02
2022-10-15T23:41:05.760Z,2.42
2022-10-15T23:43:06.541Z,1.45
2022-10-15T23:45:07.459Z,1.27
2022-10-15T23:47:08.233Z,2.40
2022-10-15T23:49:09.186Z,1.07
2022-10-15T23:51:20.846Z,0.50
2022-10-15T23:53:21.934Z,0.68
2022-10-15T23:55:22.707Z,0.65
2022-10-15T23:57:23.650Z,0.65
2022-10-15T23:59:24.759Z,1.10
